Flight Track Log - Related Links

Times and Time Zones

All times are in EDT time to prevent confusion due to time zone crossing. See the EJA941 flight status page for this flight to view local times or setup timezone preferences in your user account.

Time Position Orientation Groundspeed Altitude Reporting Facility
EDT Latitude Longitude Course Direction KTS MPH feet Rate Location/Type
Fri 08:16:25 PM 37.6333 -122.4167 288° West 168 193 1,000  Level Northern Cal TRACON
Fri 08:17:25 PM 37.6500 -122.4833 288° West 226 260 3,400 2,700 Climbing Northern Cal TRACON
Fri 08:18:25 PM 37.5667 -122.4833 180° South 287 330 6,400 3,150 Climbing Northern Cal TRACON
Fri 08:19:25 PM 37.5167 -122.4333 142° Southeast 293 337 9,700 2,311 Climbing Northern Cal TRACON
Fri 08:20:40 PM 37.4456 -122.3244 129° Southeast 311 358 11,600 1,279 Climbing Oakland Center
Fri 08:21:41 PM 37.3831 -122.2283 129° Southeast 351 404 12,600 1,279 Climbing Oakland Center
Fri 08:22:42 PM 37.3153 -122.1247 129° Southeast 380 437 14,200 1,317 Climbing Oakland Center
Fri 08:23:44 PM 37.2453 -122.0208 130° Southeast 390 449 15,300 1,268 Climbing Oakland Center
Fri 08:24:45 PM 37.1750 -121.9131 129° Southeast 398 458 16,800 1,377 Climbing Oakland Center
Fri 08:25:46 PM 37.1006 -121.8025 130° Southeast 403 464 18,100 1,220 Climbing Oakland Center
Fri 08:26:48 PM 37.0253 -121.6994 132° Southeast 410 472 19,300 1,171 Climbing Oakland Center
Fri 08:27:49 PM 36.9500 -121.5844 129° Southeast 424 488 20,500 1,475 Climbing Oakland Center
Fri 08:28:50 PM 36.8592 -121.4425 129° Southeast 434 499 22,300 1,561 Climbing Oakland Center
Fri 08:29:52 PM 36.7808 -121.3325 132° Southeast 440 506 23,700 1,317 Climbing Oakland Center
Fri 08:30:53 PM 36.6994 -121.2164 131° Southeast 442 509 25,000 1,268 Climbing Oakland Center
Fri 08:31:55 PM 36.6169 -121.0939 130° Southeast 458 527 26,300 1,220 Climbing Oakland Center
Fri 08:32:56 PM 36.5325 -120.9692 130° Southeast 468 539 27,500 1,230 Climbing Oakland Center
Fri 08:33:57 PM 36.4461 -120.8436 131° Southeast 475 547 28,800 1,220 Climbing Oakland Center
Fri 08:34:59 PM 36.3600 -120.7119 129° Southeast 488 562 30,000 1,220 Climbing Oakland Center
Fri 08:36:00 PM 36.2672 -120.5847 132° Southeast 493 567 31,300 1,756 Climbing Oakland Center
Fri 08:37:02 PM 36.1592 -120.4250 130° Southeast 509 586 33,600 2,000 Climbing Oakland Center
Fri 08:38:03 PM 36.0697 -120.2969 131° Southeast 493 567 35,400 1,721 Climbing Oakland Center
Fri 08:39:04 PM 35.9819 -120.1767 132° Southeast 466 536 37,100 1,141 Climbing Oakland Center
Fri 08:41:07 PM 35.8003 -119.9178 131° Southeast 496 571 38,900 616 Climbing Oakland Center
Fri 08:42:09 PM 35.7050 -119.7828 131° Southeast 516 594 39,000  Climbing Oakland Center
Fri 08:43:10 PM 35.6086 -119.6483 131° Southeast 521 600 38,900  Descending Oakland Center
Fri 08:44:11 PM 35.5119 -119.5122 131° Southeast 525 604 39,000 45 Climbing Oakland Center
Fri 08:45:22 PM 35.3969 -119.3511 131° Southeast 522 601 39,000 135 Level Los Angeles Center
Fri 08:46:24 PM 35.3025 -119.2167 131° Southeast 520 598 39,300 532 Climbing Los Angeles Center
Fri 08:47:26 PM 35.2397 -119.0608 116° Southeast 508 585 40,100 823 Climbing Los Angeles Center
Fri 08:48:28 PM 35.1836 -118.9022 113° Southeast 506 582 41,000 435 Climbing Los Angeles Center
Fri 08:49:30 PM 35.1117 -118.7117 115° Southeast 513 590 41,000  Level Los Angeles Center
Fri 08:50:32 PM 35.0544 -118.5497 113° Southeast 518 596 41,000  Level Los Angeles Center
Fri 08:51:34 PM 34.9947 -118.3861 114° Southeast 523 602 41,000  Level Los Angeles Center
Fri 08:52:36 PM 34.9350 -118.2253 114° Southeast 522 601 41,000  Level Los Angeles Center
Fri 08:53:38 PM 34.8761 -118.0653 114° Southeast 524 603 41,000  Level Los Angeles Center
Fri 08:54:40 PM 34.8172 -117.9047 114° Southeast 525 604 41,000  Level Los Angeles Center
Fri 08:55:42 PM 34.7464 -117.7139 114° Southeast 525 604 41,000  Level Los Angeles Center
Fri 08:56:44 PM 34.6864 -117.5550 115° Southeast 527 606 41,000  Level Los Angeles Center
Fri 08:57:47 PM 34.6269 -117.3953 114° Southeast 525 604 41,000  Level Los Angeles Center
Fri 08:58:49 PM 34.5664 -117.2350 115° Southeast 527 606 41,000  Level Los Angeles Center
Fri 08:59:51 PM 34.5047 -117.0744 115° Southeast 528 608 41,000  Level Los Angeles Center
Fri 09:00:53 PM 34.4319 -116.8831 115° Southeast 524 603 41,000  Level Los Angeles Center
Fri 09:01:55 PM 34.3708 -116.7194 114° Southeast 534 615 41,000  Level Los Angeles Center
Fri 09:02:57 PM 34.3094 -116.5575 115° Southeast 535 616 41,000  Level Los Angeles Center
Fri 09:03:59 PM 34.2481 -116.3958 115° Southeast 532 612 41,000  Level Los Angeles Center
Fri 09:05:01 PM 34.1853 -116.2375 116° Southeast 526 605 41,000  Level Los Angeles Center
Fri 09:06:03 PM 34.1147 -116.0586 115° Southeast 531 611 41,000  Level Los Angeles Center
Fri 09:07:05 PM 34.0536 -115.9031 115° Southeast 518 596 41,000  Level Los Angeles Center
Fri 09:08:07 PM 34.0000 -115.7706 116° Southeast 536 617 41,000  Level Los Angeles Center
Fri 09:09:09 PM 33.9108 -115.5447 115° Southeast 532 612 41,000  Level Los Angeles Center
Fri 09:10:11 PM 33.8464 -115.3850 116° Southeast 530 610 41,000  Level Los Angeles Center
Fri 09:11:13 PM 33.7825 -115.2256 116° Southeast 529 609 41,000  Level Los Angeles Center
Fri 09:12:15 PM 33.7189 -115.0639 115° Southeast 533 613 41,000  Level Los Angeles Center
Fri 09:13:17 PM 33.6542 -114.9044 116° Southeast 531 611 41,000  Level Los Angeles Center
Fri 09:14:19 PM 33.5922 -114.7417 115° Southeast 537 618 41,000  Level Los Angeles Center
Fri 09:15:21 PM 33.5600 -114.5681 103° East 536 617 41,000  Level Los Angeles Center
Fri 09:16:23 PM 33.5228 -114.3553 102° East 542 624 41,000  Level Los Angeles Center
Fri 09:17:27 PM 33.4942 -114.1856 101° East 545 627 41,000  Level Albuquerque Center
Fri 09:18:29 PM 33.4633 -114.0086 102° East 544 626 41,000  Level Albuquerque Center
Fri 09:19:30 PM 33.4328 -113.8297 102° East 545 627 41,000  Level Albuquerque Center
Fri 09:20:32 PM 33.4017 -113.6528 102° East 545 627 41,000  Level Albuquerque Center
Fri 09:21:33 PM 33.3619 -113.4411 103° East 545 627 41,000  Level Albuquerque Center
Fri 09:22:35 PM 33.3286 -113.2639 103° East 545 627 41,000  Level Albuquerque Center
Fri 09:23:36 PM 33.2961 -113.0878 102° East 543 625 41,000  Level Albuquerque Center
Fri 09:24:37 PM 33.2622 -112.9106 103° East 545 627 41,000  Level Albuquerque Center
Fri 09:25:39 PM 33.2283 -112.7333 103° East 545 627 41,000  Level Albuquerque Center
Fri 09:26:40 PM 33.1964 -112.5678 103° East 545 627 41,000  Level Albuquerque Center
Fri 09:27:42 PM 33.1633 -112.3931 103° East 544 626 41,000  Level Albuquerque Center
Fri 09:28:43 PM 33.1217 -112.1817 103° East 549 632 41,000  Level Albuquerque Center
Fri 09:29:45 PM 33.0869 -112.0058 103° East 549 632 41,000  Level Albuquerque Center
Fri 09:30:46 PM 33.0539 -111.8297 103° East 549 632 41,000  Level Albuquerque Center
Fri 09:31:47 PM 33.0186 -111.6544 103° East 549 632 41,000  Level Albuquerque Center
Fri 09:32:49 PM 32.9833 -111.4783 103° East 549 632 41,000  Level Albuquerque Center
Fri 09:33:50 PM 32.9481 -111.3031 103° East 547 629 41,000  Level Albuquerque Center
Fri 09:34:51 PM 32.9133 -111.1258 103° East 553 636 41,000  Level Albuquerque Center
Fri 09:35:53 PM 32.8686 -110.9147 104° East 552 635 41,000  Level Albuquerque Center
Fri 09:36:54 PM 32.8328 -110.7375 103° East 553 636 41,000  Level Albuquerque Center
Fri 09:37:55 PM 32.7950 -110.5622 104° East 554 638 41,000  Level Albuquerque Center
Fri 09:38:57 PM 32.7589 -110.3858 104° East 555 639 41,000  Level Albuquerque Center
Fri 09:39:58 PM 32.7217 -110.2097 104° East 556 640 41,000  Level Albuquerque Center
Fri 09:40:59 PM 32.6839 -110.0347 104° East 555 639 41,000  Level Albuquerque Center
Fri 09:42:01 PM 32.6458 -109.8594 104° East 555 639 41,000  Level Albuquerque Center
Fri 09:43:02 PM 32.5989 -109.6467 105° East 564 649 41,000  Level Albuquerque Center
Fri 09:44:03 PM 32.5594 -109.4703 105° East 564 649 41,000  Level Albuquerque Center
Fri 09:45:04 PM 32.5206 -109.2953 105° East 561 646 41,000  Level Albuquerque Center
Fri 09:46:06 PM 32.4825 -109.1200 104° East 560 644 41,000  Level Albuquerque Center
Fri 09:47:07 PM 32.4436 -108.9453 105° East 560 644 41,000 -197 Level Albuquerque Center
Fri 09:48:08 PM 32.3958 -108.7367 105° East 558 642 40,600 -634 Descending Albuquerque Center
Fri 09:49:10 PM 32.3564 -108.5583 105° East 562 647 39,700 -780 Descending Albuquerque Center
Fri 09:50:11 PM 32.3136 -108.3736 105° East 572 658 39,000 -344 Descending Albuquerque Center
Fri 09:51:12 PM 32.2717 -108.1906 105° East 578 665 39,000  Level Albuquerque Center
Fri 09:52:14 PM 32.2303 -108.0086 105° East 577 664 39,000  Level Albuquerque Center
Fri 09:53:15 PM 32.1881 -107.8264 105° East 578 665 39,000  Level Albuquerque Center
Fri 09:54:17 PM 32.1450 -107.6433 105° East 582 670 39,000  Level Albuquerque Center
Fri 09:55:18 PM 32.0936 -107.4247 105° East 584 672 39,000  Level Albuquerque Center
Fri 09:56:19 PM 32.0503 -107.2417 106° East 586 674 39,000  Level Albuquerque Center
Fri 09:57:21 PM 32.0075 -107.0603 105° East 584 672 39,000  Level Albuquerque Center
Fri 09:58:22 PM 31.9636 -106.8750 106° East 590 679 39,000  Level Albuquerque Center
Fri 09:59:23 PM 31.9175 -106.6944 107° East 585 673 39,000  Level Albuquerque Center
Fri 10:00:25 PM 31.8700 -106.5003 106° East 588 677 39,000  Level Albuquerque Center
Fri 10:01:26 PM 31.8261 -106.3128 105° East 592 681 39,000  Level Albuquerque Center
Fri 10:02:28 PM 31.7972 -106.1247 100° East 593 682 39,000  Level Albuquerque Center
Fri 10:03:29 PM 31.7739 -105.9356 98° East 586 674 39,000  Level Albuquerque Center
Fri 10:04:30 PM 31.7503 -105.7442 98° East 590 679 39,000  Level Albuquerque Center
Fri 10:05:32 PM 31.7222 -105.5144 98° East 591 680 39,000  Level Albuquerque Center
Fri 10:06:33 PM 31.6994 -105.3211 98° East 596 686 39,000  Level Albuquerque Center
Fri 10:07:34 PM 31.6753 -105.1306 98° East 590 679 39,000  Level Albuquerque Center
Fri 10:08:35 PM 31.6508 -104.9364 98° East 595 685 39,000  Level Albuquerque Center
Fri 10:09:37 PM 31.6264 -104.7433 98° East 595 685 39,000  Level Albuquerque Center
Fri 10:10:38 PM 31.6014 -104.5486 99° East 599 689 39,000  Level Albuquerque Center
Fri 10:11:39 PM 31.5772 -104.3544 98° East 600 690 39,000  Level Albuquerque Center
Fri 10:12:41 PM 31.5517 -104.1633 99° East 594 684 39,000  Level Albuquerque Center
Fri 10:13:42 PM 31.5258 -103.9717 99° East 593 682 39,000  Level Albuquerque Center
Fri 10:14:44 PM 31.4958 -103.7503 99° East 598 688 39,000  Level Albuquerque Center
Fri 10:15:45 PM 31.4686 -103.5572 99° East 601 692 39,000  Level Albuquerque Center
Fri 10:16:46 PM 31.4428 -103.3644 99° East 601 692 39,000  Level Albuquerque Center
Fri 10:17:48 PM 31.4200 -103.1733 98° East 597 687 39,000  Level Albuquerque Center
Fri 10:18:49 PM 31.3958 -102.9811 98° East 598 688 39,000  Level Albuquerque Center
Fri 10:19:50 PM 31.3711 -102.7886 99° East 599 689 39,000  Level Albuquerque Center
Fri 10:20:52 PM 31.3456 -102.5947 99° East 602 693 39,000  Level Albuquerque Center
Fri 10:21:53 PM 31.3161 -102.3664 99° East 624 718 39,000  Level Albuquerque Center
Fri 10:22:54 PM 31.2914 -102.1742 99° East 608 700 39,000  Level Albuquerque Center
Fri 10:23:56 PM 31.2647 -101.9814 99° East 606 697 39,000  Level Albuquerque Center
Fri 10:24:57 PM 31.2406 -101.7944 99° East 604 695 39,000  Level Albuquerque Center
Fri 10:26:33 PM 31.1972 -101.4836 99° East 607 699 39,000  Level Houston Center
Fri 10:27:34 PM 31.1708 -101.2964 99° East 608 700 39,000  Level Houston Center
Fri 10:28:35 PM 31.1375 -101.0631 99° East 607 699 39,000  Level Houston Center
Fri 10:29:36 PM 31.1117 -100.8672 99° East 610 702 39,000  Level Houston Center
Fri 10:30:37 PM 31.0839 -100.6739 99° East 604 695 39,000  Level Houston Center
Fri 10:31:38 PM 31.0561 -100.4817 100° East 601 692 39,000  Level Houston Center
Fri 10:32:39 PM 31.0275 -100.2842 100° East 603 694 39,000  Level Houston Center
Fri 10:33:40 PM 30.9978 -100.0928 100° East 608 700 39,000  Level Houston Center
Fri 10:34:41 PM 30.9683 -99.8986 100° East 607 699 39,000  Level Houston Center
Fri 10:35:42 PM 30.9400 -99.7047 100° East 605 696 39,000  Level Houston Center
Fri 10:36:43 PM 30.9139 -99.5094 99° East 608 700 39,000  Level Houston Center
Fri 10:37:44 PM 30.9083 -99.3111 92° East 611 703 39,000  Level Houston Center
Fri 10:38:45 PM 30.9061 -99.1008 91° East 611 703 39,000  Level Houston Center
Fri 10:39:46 PM 30.9019 -98.9014 91° East 611 703 39,000  Level Houston Center
Fri 10:40:47 PM 30.8981 -98.7011 91° East 613 705 39,000  Level Houston Center
Fri 10:41:48 PM 30.8947 -98.5017 91° East 612 704 39,000  Level Houston Center
Fri 10:42:49 PM 30.8892 -98.3017 92° East 614 707 39,000  Level Houston Center
Fri 10:43:50 PM 30.8844 -98.1011 92° East 614 707 39,000  Level Houston Center
Fri 10:44:51 PM 30.8794 -97.9028 92° East 611 703 39,000  Level Houston Center
Fri 10:45:52 PM 30.8739 -97.7050 92° East 607 699 39,000  Level Houston Center
Fri 10:46:53 PM 30.8678 -97.5111 92° East 600 690 39,000 -295 Level Houston Center
Fri 10:47:54 PM 30.8628 -97.3297 92° East 595 685 38,400 -1,180 Descending Houston Center
Fri 10:48:55 PM 30.8567 -97.0997 92° East 598 688 36,600 -1,623 Descending Houston Center
Fri 10:49:56 PM 30.8492 -96.9086 93° East 579 666 35,100 -2,459 Descending Houston Center
Fri 10:50:57 PM 30.8064 -96.7319 106° East 565 650 31,600 -3,639 Descending Houston Center
Fri 10:51:58 PM 30.7347 -96.5606 116° Southeast 581 669 27,700 -3,756 Descending Houston Center
Fri 10:53:00 PM 30.6656 -96.3883 115° Southeast 583 671 23,900 -3,639 Descending Houston Center
Fri 10:54:00 PM 30.6044 -96.2278 114° Southeast 539 620 20,300 -3,372 Descending Houston Center
Fri 10:55:01 PM 30.5436 -96.0836 116° Southeast 497 572 17,100 -3,176 Descending Houston Center
Fri 10:55:25 PM 30.5200 -96.0272 116° Southeast 460 529 15,800 -3,250 Descending Houston Center
Fri 10:55:49 PM 30.4961 -95.9694 116° Southeast 436 502 14,500 -2,612 Descending Houston Center
Fri 10:56:50 PM 30.4394 -95.8500 119° Southeast 411 473 12,100 -1,266 Descending Houston Center
Fri 10:57:57 PM 30.3636 -95.7500 131° Southeast 360 414 11,800 -851 Descending Houston Center
Fri 10:59:04 PM 30.2775 -95.6778 144° Southeast 335 386 10,200 -1,370 Descending Houston Center
Fri 11:00:04 PM 30.2083 -95.6086 139° Southeast 329 379 8,900 -1,171 Descending Houston Center
Fri 11:01:07 PM 30.1517 -95.5483 137° Southeast 320 368 7,800 -919 Descending Houston Center
Fri 11:02:08 PM 30.0961 -95.4772 132° Southeast 306 352 7,000 -368 Descending Houston Center
Fri 11:03:01 PM 30.0867 -95.3792 96° East 291 335 7,100 -655 Climbing Houston Center
Fri 11:04:07 PM 30.0794 -95.2761 95° East 278 320 5,700 -1,417 Descending Houston Center
Fri 11:05:08 PM 30.0553 -95.1969 109° East 276 318 4,100 -1,525 Descending Houston Center
Fri 11:06:09 PM 29.9900 -95.1953 179° South 224 258 2,600 -1,328 Descending Houston Center
Fri 11:07:10 PM 29.9783 -95.2500 256° West 144 166 1,400 -1,096 Descending Houston Center
Fri 11:08:04 PM 29.9778 -95.2886 269° West 136 157 500 -1,000 Descending Houston Center

Login

Don't have an account? Register now (free) for customized features, flight alerts, and more!